createdAt,value
2018-05-17T00:00:05.407Z,9.90
2018-05-17T00:02:32.891Z,9.90
2018-05-17T00:05:00.369Z,9.90
2018-05-17T00:07:27.843Z,9.90
2018-05-17T00:09:55.311Z,9.90
2018-05-17T00:12:22.792Z,10.00
2018-05-17T00:14:51.023Z,10.00
2018-05-17T00:17:18.636Z,10.00
2018-05-17T00:19:47.535Z,10.10
2018-05-17T00:22:15.010Z,10.10
2018-05-17T00:24:42.488Z,10.10
2018-05-17T00:27:09.964Z,10.10
2018-05-17T00:29:37.447Z,10.00
2018-05-17T00:32:05.706Z,10.00
2018-05-17T00:34:33.272Z,10.00
2018-05-17T00:37:00.760Z,10.00
2018-05-17T00:39:28.215Z,10.00
2018-05-17T00:41:55.688Z,10.00
2018-05-17T00:44:23.155Z,10.00
2018-05-17T00:46:50.615Z,9.90
2018-05-17T00:49:18.120Z,9.90
2018-05-17T00:51:46.347Z,9.90
2018-05-17T00:54:13.820Z,9.90
2018-05-17T00:56:41.294Z,10.00
2018-05-17T00:59:09.523Z,9.90
2018-05-17T01:01:37.004Z,9.90
2018-05-17T01:04:04.528Z,9.90
2018-05-17T01:06:32.009Z,9.80
2018-05-17T01:08:59.463Z,9.80
2018-05-17T01:11:26.939Z,9.80
2018-05-17T01:13:54.400Z,9.80
2018-05-17T01:16:21.877Z,9.80
2018-05-17T01:18:50.163Z,9.70
2018-05-17T01:21:17.667Z,9.60
2018-05-17T01:23:45.132Z,9.70
2018-05-17T01:26:12.616Z,9.70
2018-05-17T01:28:40.832Z,9.80
2018-05-17T01:31:08.307Z,9.70
2018-05-17T01:33:37.287Z,9.80
2018-05-17T01:36:04.751Z,9.80
2018-05-17T01:38:32.268Z,9.90
2018-05-17T01:40:59.732Z,9.90
2018-05-17T01:43:27.200Z,9.90
2018-05-17T01:45:54.662Z,10.00
2018-05-17T01:48:22.257Z,10.00
2018-05-17T01:50:49.722Z,9.90
2018-05-17T01:53:17.970Z,10.00
2018-05-17T01:55:45.451Z,9.90
2018-05-17T01:58:12.916Z,10.00
2018-05-17T02:00:41.160Z,10.10
2018-05-17T02:03:08.628Z,10.10
2018-05-17T02:05:36.611Z,10.10
2018-05-17T02:08:04.846Z,10.10
2018-05-17T02:10:32.319Z,10.10
2018-05-17T02:12:59.778Z,10.40
2018-05-17T02:15:27.267Z,10.50
2018-05-17T02:17:55.526Z,10.60
2018-05-17T02:20:23.790Z,10.60
2018-05-17T02:22:51.246Z,10.60
2018-05-17T02:25:18.698Z,10.60
2018-05-17T02:27:47.012Z,10.50
2018-05-17T02:30:14.523Z,10.50
2018-05-17T02:32:42.765Z,10.50
2018-05-17T02:35:10.253Z,10.40
2018-05-17T02:37:38.865Z,10.50
2018-05-17T02:40:07.094Z,10.60
2018-05-17T02:42:34.570Z,10.50
2018-05-17T02:45:02.064Z,10.50
2018-05-17T02:47:29.585Z,10.50
2018-05-17T02:49:57.065Z,10.60
2018-05-17T02:52:24.529Z,10.70
2018-05-17T02:54:52.062Z,10.70
2018-05-17T02:57:20.287Z,10.60
2018-05-17T02:59:47.787Z,10.60
2018-05-17T03:02:15.251Z,10.60
2018-05-17T03:04:43.501Z,10.50
2018-05-17T03:07:11.132Z,10.50
2018-05-17T03:09:38.624Z,10.50
2018-05-17T03:12:06.088Z,10.50
2018-05-17T03:14:34.339Z,10.50
2018-05-17T03:17:01.814Z,10.50
2018-05-17T03:19:30.044Z,10.50
2018-05-17T03:21:57.520Z,10.50
2018-05-17T03:24:25.006Z,10.50
2018-05-17T03:26:52.476Z,10.70
2018-05-17T03:29:20.705Z,10.90
2018-05-17T03:31:48.285Z,10.90
2018-05-17T03:34:15.768Z,10.90
2018-05-17T03:36:44.007Z,11.00
2018-05-17T03:39:11.482Z,10.90
2018-05-17T03:41:38.970Z,10.90
2018-05-17T03:44:06.437Z,10.90
2018-05-17T03:46:33.914Z,11.00
2018-05-17T03:49:01.379Z,11.10
2018-05-17T03:51:28.869Z,11.10
2018-05-17T03:53:57.127Z,11.20
2018-05-17T03:56:25.387Z,11.20
2018-05-17T03:58:52.858Z,11.20
2018-05-17T04:01:33.897Z,11.20
2018-05-17T04:04:13.200Z,11.30
2018-05-17T04:06:40.687Z,11.30
2018-05-17T04:09:08.197Z,11.30
2018-05-17T04:11:36.441Z,11.40
2018-05-17T04:14:03.937Z,11.40
2018-05-17T04:16:31.547Z,11.40
2018-05-17T04:18:59.879Z,11.40
2018-05-17T04:21:27.395Z,11.30
2018-05-17T04:23:54.868Z,11.40
2018-05-17T04:26:23.110Z,11.40
2018-05-17T04:28:50.601Z,11.40
2018-05-17T04:31:19.472Z,11.40
2018-05-17T04:33:47.622Z,11.40
2018-05-17T04:36:15.158Z,11.40
2018-05-17T04:38:42.647Z,11.40
2018-05-17T04:41:10.140Z,11.40
2018-05-17T04:43:38.845Z,11.40
2018-05-17T04:46:06.452Z,11.40
2018-05-17T04:48:33.980Z,11.40
2018-05-17T04:51:01.460Z,11.40
2018-05-17T04:53:28.949Z,11.40
2018-05-17T04:55:57.196Z,11.40
2018-05-17T04:58:25.171Z,11.40
2018-05-17T05:00:52.655Z,11.40
2018-05-17T05:03:20.140Z,11.40
2018-05-17T05:05:47.627Z,11.50
2018-05-17T05:08:15.150Z,11.40
2018-05-17T05:10:42.623Z,11.40
2018-05-17T05:13:10.103Z,11.40
2018-05-17T05:15:38.425Z,11.50
2018-05-17T05:18:05.830Z,11.50
2018-05-17T05:20:33.343Z,11.50
2018-05-17T05:23:00.934Z,11.50
2018-05-17T05:25:28.411Z,11.50
2018-05-17T05:27:56.166Z,11.50
2018-05-17T05:30:25.145Z,11.50
2018-05-17T05:32:52.814Z,11.50
2018-05-17T05:35:20.289Z,11.60
2018-05-17T05:37:47.799Z,11.60
2018-05-17T05:40:15.300Z,11.60
2018-05-17T05:42:42.867Z,11.60
2018-05-17T05:45:11.123Z,11.60
2018-05-17T05:47:38.596Z,11.60
2018-05-17T05:50:06.858Z,11.60
2018-05-17T05:52:34.483Z,11.60
2018-05-17T05:55:03.063Z,11.70
2018-05-17T05:57:30.546Z,11.70
2018-05-17T05:59:58.012Z,11.70
2018-05-17T06:02:25.569Z,11.70
2018-05-17T06:04:53.120Z,11.70
2018-05-17T06:07:20.601Z,11.80
2018-05-17T06:09:48.850Z,11.80
2018-05-17T06:12:16.336Z,11.80
2018-05-17T06:14:44.575Z,11.70
2018-05-17T06:17:12.071Z,11.70
2018-05-17T06:19:39.570Z,11.70
2018-05-17T06:22:07.076Z,11.70
2018-05-17T06:24:35.340Z,11.70
2018-05-17T06:27:03.599Z,11.80
2018-05-17T06:29:32.750Z,11.90
2018-05-17T06:32:00.242Z,11.90
2018-05-17T06:34:27.718Z,12.00
2018-05-17T06:36:56.569Z,12.20
2018-05-17T06:39:24.056Z,12.20
2018-05-17T06:41:51.535Z,12.20
2018-05-17T06:44:19.021Z,12.40
2018-05-17T06:46:46.486Z,12.50
2018-05-17T06:49:14.009Z,12.60
2018-05-17T06:51:42.243Z,12.60
2018-05-17T06:54:09.778Z,12.60
2018-05-17T06:56:37.251Z,12.60
2018-05-17T06:59:05.520Z,12.80
2018-05-17T07:01:33.015Z,12.80
2018-05-17T07:04:01.303Z,13.30
2018-05-17T07:06:28.786Z,13.30
2018-05-17T07:08:56.272Z,13.50
2018-05-17T07:11:23.759Z,13.50
2018-05-17T07:13:51.994Z,13.70
2018-05-17T07:16:19.504Z,13.60
2018-05-17T07:18:47.355Z,13.80
2018-05-17T07:21:14.441Z,13.90
2018-05-17T07:23:42.526Z,13.80
2018-05-17T07:26:10.020Z,14.00
2018-05-17T07:28:38.248Z,14.20
2018-05-17T07:31:05.730Z,14.20
2018-05-17T07:33:33.300Z,13.90
2018-05-17T07:36:00.806Z,14.00
2018-05-17T07:38:28.319Z,14.10
2018-05-17T07:40:56.568Z,14.10
2018-05-17T07:43:24.056Z,14.10
2018-05-17T07:45:52.955Z,14.00
2018-05-17T07:48:21.207Z,13.80
2018-05-17T07:50:49.438Z,13.70
2018-05-17T07:53:16.977Z,13.70
2018-05-17T07:55:44.462Z,13.60
2018-05-17T07:58:11.943Z,13.40
2018-05-17T08:00:39.423Z,13.30
2018-05-17T08:03:07.650Z,12.90
2018-05-17T08:05:35.148Z,12.90
2018-05-17T08:08:03.397Z,12.50
2018-05-17T08:10:31.359Z,12.50
2018-05-17T08:13:00.517Z,12.30
2018-05-17T08:15:27.994Z,12.30
2018-05-17T08:17:55.580Z,12.20
2018-05-17T08:20:22.944Z,12.30
2018-05-17T08:22:51.207Z,12.30
2018-05-17T08:25:18.670Z,12.20
2018-05-17T08:27:46.170Z,12.30
2018-05-17T08:30:13.649Z,12.40
2018-05-17T08:32:41.117Z,12.40
2018-05-17T08:35:08.638Z,12.40
2018-05-17T08:37:36.095Z,12.40
2018-05-17T08:40:03.583Z,12.50
2018-05-17T08:42:31.089Z,12.70
2018-05-17T08:44:58.584Z,12.90
2018-05-17T08:47:26.051Z,13.00
2018-05-17T08:49:53.555Z,13.20
2018-05-17T08:52:21.057Z,13.30
2018-05-17T08:54:48.526Z,13.50
2018-05-17T08:57:16.027Z,13.30
2018-05-17T08:59:44.340Z,13.50
2018-05-17T09:02:12.540Z,13.50
2018-05-17T09:04:40.025Z,13.50
2018-05-17T09:07:08.259Z,13.50
2018-05-17T09:09:35.734Z,13.50
2018-05-17T09:12:03.236Z,13.70
2018-05-17T09:14:30.703Z,14.10
2018-05-17T09:16:58.188Z,14.10
2018-05-17T09:19:25.711Z,13.90
2018-05-17T09:21:53.331Z,13.90
2018-05-17T09:24:21.571Z,14.00
2018-05-17T09:26:49.063Z,14.00
2018-05-17T09:29:17.377Z,14.40
2018-05-17T09:31:44.797Z,14.30
2018-05-17T09:34:13.043Z,14.10
2018-05-17T09:36:41.924Z,14.10
2018-05-17T09:39:09.392Z,14.00
2018-05-17T09:41:36.927Z,13.90
2018-05-17T09:44:04.407Z,13.60
2018-05-17T09:46:31.878Z,13.30
2018-05-17T09:49:00.131Z,13.30
2018-05-17T09:51:27.613Z,13.30
2018-05-17T09:53:55.865Z,13.30
2018-05-17T09:56:23.345Z,13.30
2018-05-17T09:58:51.603Z,13.40
2018-05-17T10:01:19.103Z,13.40
2018-05-17T10:03:46.597Z,13.40
2018-05-17T10:06:14.072Z,13.40
2018-05-17T10:08:41.553Z,13.30
2018-05-17T10:11:09.076Z,13.20
2018-05-17T10:13:36.548Z,13.20
2018-05-17T10:16:04.803Z,13.00
2018-05-17T10:18:32.292Z,13.00
2018-05-17T10:21:00.554Z,13.20
2018-05-17T10:23:28.813Z,13.40
2018-05-17T10:25:56.288Z,13.40
2018-05-17T10:28:24.548Z,13.50
2018-05-17T10:30:52.031Z,13.50
2018-05-17T10:33:19.527Z,13.50
2018-05-17T10:35:47.045Z,13.50
2018-05-17T10:38:15.291Z,13.70
2018-05-17T10:40:42.848Z,13.70
2018-05-17T10:43:10.353Z,13.80
2018-05-17T10:45:37.818Z,13.80
2018-05-17T10:48:05.317Z,13.90
2018-05-17T10:50:32.785Z,14.10
2018-05-17T10:53:01.049Z,14.20
2018-05-17T10:55:28.729Z,14.20
2018-05-17T10:57:56.979Z,14.00
2018-05-17T11:00:24.469Z,14.00
2018-05-17T11:02:51.959Z,14.00
2018-05-17T11:05:19.463Z,14.10
2018-05-17T11:07:47.724Z,14.30
2018-05-17T11:10:15.208Z,14.30
2018-05-17T11:12:42.703Z,14.40
2018-05-17T11:15:10.196Z,14.30
2018-05-17T11:17:37.696Z,14.50
2018-05-17T11:20:05.177Z,14.70
2018-05-17T11:22:32.647Z,14.60
2018-05-17T11:25:00.167Z,14.40
2018-05-17T11:27:27.665Z,14.50
2018-05-17T11:29:55.148Z,14.80
2018-05-17T11:32:23.392Z,14.90
2018-05-17T11:34:51.015Z,14.90
2018-05-17T11:37:18.498Z,15.00
2018-05-17T11:39:45.992Z,15.20
2018-05-17T11:42:14.265Z,15.00
2018-05-17T11:44:42.522Z,15.00
2018-05-17T11:47:11.994Z,15.00
2018-05-17T11:49:39.472Z,15.10
2018-05-17T11:52:06.959Z,15.00
2018-05-17T11:54:35.188Z,14.90
2018-05-17T11:57:02.697Z,14.90
2018-05-17T11:59:30.941Z,15.30
2018-05-17T12:01:58.419Z,15.30
2018-05-17T12:04:26.692Z,15.40
2018-05-17T12:06:54.927Z,15.30
2018-05-17T12:09:22.423Z,15.30
2018-05-17T12:11:50.685Z,14.80
2018-05-17T12:14:18.143Z,14.80
2018-05-17T12:16:45.644Z,14.70
2018-05-17T12:19:13.160Z,14.60
2018-05-17T12:21:40.718Z,14.80
2018-05-17T12:24:08.965Z,14.80
2018-05-17T12:26:38.321Z,14.80
2018-05-17T12:29:05.792Z,15.00
2018-05-17T12:31:33.272Z,14.90
2018-05-17T12:34:00.746Z,15.00
2018-05-17T12:36:28.249Z,14.80
2018-05-17T12:38:55.724Z,14.80
2018-05-17T12:41:24.875Z,15.00
2018-05-17T12:43:53.126Z,15.10
2018-05-17T12:46:20.593Z,15.10
2018-05-17T12:48:48.855Z,15.30
2018-05-17T12:51:16.341Z,15.20
2018-05-17T12:53:44.695Z,15.30
2018-05-17T12:56:12.205Z,15.30
2018-05-17T12:58:39.782Z,15.30
2018-05-17T13:01:07.211Z,15.30
2018-05-17T13:03:34.723Z,15.30
2018-05-17T13:06:02.286Z,15.40
2018-05-17T13:08:29.789Z,15.40
2018-05-17T13:10:57.264Z,15.30
2018-05-17T13:13:24.759Z,15.20
2018-05-17T13:15:53.034Z,15.50
2018-05-17T13:18:21.284Z,15.70
2018-05-17T13:20:48.780Z,15.70
2018-05-17T13:23:16.284Z,15.60
2018-05-17T13:25:43.789Z,15.70
2018-05-17T13:28:12.032Z,15.90
2018-05-17T13:30:39.527Z,15.90
2018-05-17T13:33:07.004Z,16.00
2018-05-17T13:35:34.519Z,16.20
2018-05-17T13:38:02.749Z,16.80
2018-05-17T13:40:30.248Z,16.80
2018-05-17T13:42:57.726Z,17.00
2018-05-17T13:45:25.226Z,16.90
2018-05-17T13:47:52.812Z,16.80
2018-05-17T13:50:20.957Z,16.60
2018-05-17T13:52:48.463Z,16.60
2018-05-17T13:55:16.731Z,16.30
2018-05-17T13:57:44.997Z,16.70
2018-05-17T14:00:13.225Z,16.90
2018-05-17T14:02:40.805Z,16.90
2018-05-17T14:05:08.193Z,17.20
2018-05-17T14:07:36.467Z,17.40
2018-05-17T14:10:05.219Z,17.20
2018-05-17T14:12:32.717Z,17.20
2018-05-17T14:15:00.968Z,16.60
2018-05-17T14:17:28.445Z,16.60
2018-05-17T14:19:56.708Z,16.40
2018-05-17T14:22:24.199Z,16.40
2018-05-17T14:24:51.704Z,16.30
2018-05-17T14:27:19.184Z,16.30
2018-05-17T14:29:47.427Z,16.20
2018-05-17T14:32:16.034Z,16.20
2018-05-17T14:34:44.304Z,16.60
2018-05-17T14:37:12.545Z,16.60
2018-05-17T14:39:40.040Z,16.60
2018-05-17T14:42:08.299Z,16.30
2018-05-17T14:44:35.798Z,16.20
2018-05-17T14:47:03.393Z,16.30
2018-05-17T14:49:30.909Z,16.00
2018-05-17T14:51:58.418Z,15.70
2018-05-17T14:54:25.897Z,15.70
2018-05-17T14:56:54.139Z,16.50
2018-05-17T14:59:21.635Z,16.50
2018-05-17T15:01:49.868Z,16.00
2018-05-17T15:04:17.364Z,16.10
2018-05-17T15:06:45.606Z,15.80
2018-05-17T15:09:13.141Z,15.80
2018-05-17T15:11:40.652Z,15.80
2018-05-17T15:14:08.962Z,16.10
2018-05-17T15:16:36.457Z,16.10
2018-05-17T15:19:03.978Z,16.10
2018-05-17T15:21:31.528Z,16.00
2018-05-17T15:23:59.034Z,15.90
2018-05-17T15:26:26.567Z,16.30
2018-05-17T15:28:54.055Z,16.60
2018-05-17T15:31:21.544Z,16.70
2018-05-17T15:33:49.212Z,17.00
2018-05-17T15:36:16.787Z,16.70
2018-05-17T15:38:44.171Z,16.70
2018-05-17T15:41:11.677Z,17.20
2018-05-17T15:43:39.142Z,17.50
2018-05-17T15:46:06.646Z,17.50
2018-05-17T15:48:34.124Z,17.60
2018-05-17T15:51:02.367Z,17.60
2018-05-17T15:53:31.497Z,17.70
2018-05-17T15:55:58.918Z,17.70
2018-05-17T15:58:26.442Z,17.70
2018-05-17T16:00:53.956Z,17.60
2018-05-17T16:03:21.457Z,17.40
2018-05-17T16:05:48.925Z,17.40
2018-05-17T16:08:16.563Z,17.60
2018-05-17T16:10:44.093Z,17.60
2018-05-17T16:13:12.370Z,17.80
2018-05-17T16:15:40.652Z,18.10
2018-05-17T16:18:08.101Z,18.10
2018-05-17T16:20:36.383Z,18.90
2018-05-17T16:23:04.642Z,19.00
2018-05-17T16:25:32.942Z,19.20
2018-05-17T16:28:00.437Z,19.10
2018-05-17T16:30:27.940Z,19.00
2018-05-17T16:32:56.231Z,19.30
2018-05-17T16:35:23.715Z,19.30
2018-05-17T16:37:51.225Z,19.50
2018-05-17T16:40:19.457Z,18.50
2018-05-17T16:42:47.012Z,18.50
2018-05-17T16:45:14.445Z,18.00
2018-05-17T16:47:41.953Z,17.80
2018-05-17T16:50:09.436Z,17.70
2018-05-17T16:52:37.034Z,17.70
2018-05-17T16:55:04.433Z,17.80
2018-05-17T16:57:32.681Z,17.70
2018-05-17T17:00:00.203Z,17.70
2018-05-17T17:02:28.721Z,17.70
2018-05-17T17:04:56.217Z,17.70
2018-05-17T17:07:23.688Z,17.70
2018-05-17T17:09:51.163Z,17.80
2018-05-17T17:12:18.675Z,17.80
2018-05-17T17:14:46.198Z,17.60
2018-05-17T17:17:13.737Z,17.40
2018-05-17T17:19:41.257Z,17.20
2018-05-17T17:22:08.762Z,16.80
2018-05-17T17:24:36.242Z,16.60
2018-05-17T17:27:03.742Z,16.50
2018-05-17T17:29:31.211Z,16.30
2018-05-17T17:31:58.687Z,16.20
2018-05-17T17:34:26.188Z,16.00
2018-05-17T17:36:54.439Z,15.90
2018-05-17T17:39:21.940Z,15.90
2018-05-17T17:41:49.442Z,15.90
2018-05-17T17:44:16.933Z,15.80
2018-05-17T17:46:45.201Z,15.70
2018-05-17T17:49:13.458Z,15.50
2018-05-17T17:51:40.945Z,15.50
2018-05-17T17:54:08.441Z,15.40
2018-05-17T17:56:35.961Z,15.30
2018-05-17T17:59:03.441Z,15.30
2018-05-17T18:01:30.950Z,15.30
2018-05-17T18:03:59.212Z,15.30
2018-05-17T18:06:26.725Z,15.30
2018-05-17T18:08:54.234Z,15.30
2018-05-17T18:11:22.527Z,15.20
2018-05-17T18:13:50.794Z,15.20
2018-05-17T18:16:19.028Z,15.10
2018-05-17T18:18:46.527Z,15.10
2018-05-17T18:21:14.829Z,15.00
2018-05-17T18:23:42.302Z,15.00
2018-05-17T18:26:09.811Z,15.00
2018-05-17T18:28:38.079Z,14.80
2018-05-17T18:31:06.343Z,14.70
2018-05-17T18:33:34.644Z,14.70
2018-05-17T18:36:02.908Z,14.60
2018-05-17T18:38:31.218Z,14.50
2018-05-17T18:40:58.684Z,14.50
2018-05-17T18:43:26.161Z,14.40
2018-05-17T18:45:53.670Z,14.30
2018-05-17T18:48:21.167Z,14.20
2018-05-17T18:50:48.668Z,14.10
2018-05-17T18:53:16.967Z,13.70
2018-05-17T18:55:44.560Z,13.70
2018-05-17T18:58:12.091Z,13.60
2018-05-17T19:00:39.600Z,13.50
2018-05-17T19:03:07.112Z,13.40
2018-05-17T19:05:34.649Z,13.20
2018-05-17T19:08:02.251Z,13.10
2018-05-17T19:10:29.745Z,12.90
2018-05-17T19:12:58.003Z,12.50
2018-05-17T19:15:25.528Z,12.50
2018-05-17T19:17:53.005Z,12.30
2018-05-17T19:20:20.561Z,12.20
2018-05-17T19:22:48.019Z,12.00
2018-05-17T19:25:15.517Z,11.90
2018-05-17T19:27:43.801Z,11.60
2018-05-17T19:30:11.295Z,11.60
2018-05-17T19:32:38.789Z,11.40
2018-05-17T19:35:07.068Z,11.30
2018-05-17T19:37:35.333Z,11.20
2018-05-17T19:40:03.618Z,11.10
2018-05-17T19:42:31.906Z,11.00
2018-05-17T19:45:00.269Z,11.10
2018-05-17T19:47:28.523Z,11.00
2018-05-17T19:49:56.035Z,11.00
2018-05-17T19:52:23.562Z,11.00
2018-05-17T19:54:51.867Z,10.70
2018-05-17T19:57:19.373Z,10.70
2018-05-17T19:59:47.676Z,10.60
2018-05-17T20:02:15.916Z,10.70
2018-05-17T20:04:43.524Z,10.60
2018-05-17T20:07:11.013Z,10.60
2018-05-17T20:09:38.495Z,10.60
2018-05-17T20:12:05.993Z,10.50
2018-05-17T20:14:33.539Z,10.40
2018-05-17T20:17:01.042Z,10.30
2018-05-17T20:19:28.548Z,10.20
2018-05-17T20:21:56.789Z,10.00
2018-05-17T20:24:24.289Z,10.00
2018-05-17T20:26:51.784Z,9.90
2018-05-17T20:29:19.370Z,10.00
2018-05-17T20:31:47.559Z,9.80
2018-05-17T20:34:15.837Z,9.70
2018-05-17T20:36:44.152Z,9.60
2018-05-17T20:39:12.370Z,9.60
2018-05-17T20:41:40.659Z,9.60
2018-05-17T20:44:09.012Z,9.50
2018-05-17T20:46:36.520Z,9.50
2018-05-17T20:49:04.025Z,9.40
2018-05-17T20:51:31.555Z,9.30
2018-05-17T20:53:59.043Z,9.30
2018-05-17T20:56:26.527Z,9.30
2018-05-17T20:58:54.021Z,9.20
2018-05-17T21:01:21.514Z,9.20
2018-05-17T21:03:48.992Z,9.10
2018-05-17T21:06:17.276Z,9.00
2018-05-17T21:08:44.765Z,9.00
2018-05-17T21:11:12.261Z,8.90
2018-05-17T21:13:39.772Z,8.90
2018-05-17T21:16:07.235Z,8.80
2018-05-17T21:18:34.743Z,8.70
2018-05-17T21:21:03.026Z,8.60
2018-05-17T21:23:30.573Z,8.50
2018-05-17T21:25:58.832Z,8.50
2018-05-17T21:28:26.343Z,8.50
2018-05-17T21:30:53.845Z,8.50
2018-05-17T21:33:21.446Z,8.40
2018-05-17T21:35:48.911Z,8.30
2018-05-17T21:38:16.432Z,8.20
2018-05-17T21:40:44.688Z,8.20
2018-05-17T21:43:12.171Z,8.20
2018-05-17T21:45:39.660Z,8.20
2018-05-17T21:48:07.161Z,8.10
2018-05-17T21:50:34.721Z,8.00
2018-05-17T21:53:03.003Z,8.00
2018-05-17T21:55:30.613Z,8.00
2018-05-17T21:57:58.023Z,7.90
2018-05-17T22:00:26.286Z,7.80
2018-05-17T22:02:53.760Z,7.80
2018-05-17T22:05:21.255Z,7.70
2018-05-17T22:07:48.754Z,7.70
2018-05-17T22:10:17.009Z,7.60
2018-05-17T22:12:44.517Z,7.60
2018-05-17T22:15:11.991Z,7.60
2018-05-17T22:17:39.476Z,7.50
2018-05-17T22:20:06.967Z,7.60
2018-05-17T22:22:35.244Z,7.60
2018-05-17T22:25:02.711Z,7.60
2018-05-17T22:27:30.208Z,7.60
2018-05-17T22:29:57.705Z,7.60
2018-05-17T22:32:25.942Z,7.50
2018-05-17T22:34:53.455Z,7.50
2018-05-17T22:37:20.919Z,7.50
2018-05-17T22:39:48.412Z,7.50
2018-05-17T22:42:15.980Z,7.50
2018-05-17T22:44:44.686Z,7.50
2018-05-17T22:47:12.907Z,7.60
2018-05-17T22:49:40.399Z,7.60
2018-05-17T22:52:07.891Z,7.60
2018-05-17T22:54:35.359Z,7.40
2018-05-17T22:57:11.707Z,7.40
2018-05-17T22:59:39.235Z,7.40
2018-05-17T23:02:06.720Z,7.30
2018-05-17T23:04:34.191Z,7.20
2018-05-17T23:07:01.676Z,7.10
2018-05-17T23:09:29.157Z,7.20
2018-05-17T23:11:56.640Z,7.20
2018-05-17T23:14:24.883Z,7.20
2018-05-17T23:16:52.364Z,7.10
2018-05-17T23:19:20.608Z,7.20
2018-05-17T23:21:48.082Z,7.20
2018-05-17T23:24:16.330Z,7.30
2018-05-17T23:26:43.807Z,7.30
2018-05-17T23:29:11.277Z,7.30
2018-05-17T23:31:39.543Z,7.30
2018-05-17T23:34:07.789Z,7.50
2018-05-17T23:36:35.285Z,7.40
2018-05-17T23:39:03.532Z,7.60
2018-05-17T23:41:35.716Z,7.50
2018-05-17T23:44:03.224Z,7.60
2018-05-17T23:46:30.712Z,7.70
2018-05-17T23:48:58.196Z,7.70
2018-05-17T23:51:26.436Z,7.80
2018-05-17T23:53:53.926Z,7.80
2018-05-17T23:56:22.188Z,8.00
2018-05-17T23:58:50.436Z,8.00
